sensor_id;sensor_type;location;lat;lon;timestamp;pressure;altitude;pressure_sealevel;temperature;humidity
72444;BME280;60449;52.016;5.414;2023-09-19T00:00:25;100638.41;;;13.24;98.42
72444;BME280;60449;52.016;5.414;2023-09-19T00:01:17;100638.28;;;13.39;98.75
72444;BME280;60449;52.016;5.414;2023-09-19T00:02:10;100641.75;;;13.49;98.89
72444;BME280;60449;52.016;5.414;2023-09-19T00:03:00;100643.38;;;13.67;98.70
72444;BME280;60449;52.016;5.414;2023-09-19T00:04:02;100646.94;;;13.60;97.62
72444;BME280;60449;52.016;5.414;2023-09-19T00:05:01;100660.94;;;13.76;97.15
72444;BME280;60449;52.016;5.414;2023-09-19T00:05:52;100651.09;;;13.89;96.66
72444;BME280;60449;52.016;5.414;2023-09-19T00:06:48;100654.78;;;13.72;96.81
72444;BME280;60449;52.016;5.414;2023-09-19T00:07:37;100657.59;;;13.58;97.13
72444;BME280;60449;52.016;5.414;2023-09-19T00:08:30;100656.50;;;13.77;97.12
72444;BME280;60449;52.016;5.414;2023-09-19T00:09:33;100644.19;;;13.74;96.85
72444;BME280;60449;52.016;5.414;2023-09-19T00:10:28;100648.53;;;13.80;96.25
72444;BME280;60449;52.016;5.414;2023-09-19T00:11:21;100646.81;;;13.77;96.72
72444;BME280;60449;52.016;5.414;2023-09-19T00:12:15;100650.28;;;13.84;96.13
72444;BME280;60449;52.016;5.414;2023-09-19T00:13:08;100657.38;;;13.80;97.00
72444;BME280;60449;52.016;5.414;2023-09-19T00:14:07;100656.47;;;13.83;97.10
72444;BME280;60449;52.016;5.414;2023-09-19T00:15:04;100654.78;;;13.72;97.39
72444;BME280;60449;52.016;5.414;2023-09-19T00:15:56;100656.41;;;13.89;97.20
72444;BME280;60449;52.016;5.414;2023-09-19T00:16:47;100652.88;;;13.88;97.33
72444;BME280;60449;52.016;5.414;2023-09-19T00:17:40;100663.34;;;14.02;96.61
72444;BME280;60449;52.016;5.414;2023-09-19T00:18:30;100658.19;;;13.87;96.72
72444;BME280;60449;52.016;5.414;2023-09-19T00:19:23;100657.22;;;13.96;96.39
72444;BME280;60449;52.016;5.414;2023-09-19T00:20:14;100652.81;;;13.95;96.35
72444;BME280;60449;52.016;5.414;2023-09-19T00:21:08;100660.75;;;13.96;96.48
72444;BME280;60449;52.016;5.414;2023-09-19T00:30:51;100671.03;;;14.26;95.94
72444;BME280;60449;52.016;5.414;2023-09-19T00:31:44;100666.75;;;14.12;96.13
72444;BME280;60449;52.016;5.414;2023-09-19T00:32:34;100667.59;;;14.17;95.63
72444;BME280;60449;52.016;5.414;2023-09-19T00:33:24;100667.63;;;14.14;96.15
72444;BME280;60449;52.016;5.414;2023-09-19T00:34:22;100678.28;;;14.10;96.32
72444;BME280;60449;52.016;5.414;2023-09-19T00:35:12;100676.44;;;14.18;95.68
72444;BME280;60449;52.016;5.414;2023-09-19T00:36:05;100668.53;;;14.15;95.74
72444;BME280;60449;52.016;5.414;2023-09-19T00:36:56;100674.75;;;14.11;96.20
72444;BME280;60449;52.016;5.414;2023-09-19T00:37:49;100669.38;;;14.17;96.04
72444;BME280;60449;52.016;5.414;2023-09-19T00:38:40;100671.94;;;14.23;95.98
72444;BME280;60449;52.016;5.414;2023-09-19T00:39:30;100660.44;;;14.24;95.84
72444;BME280;60449;52.016;5.414;2023-09-19T00:40:20;100667.44;;;14.31;95.27
72444;BME280;60449;52.016;5.414;2023-09-19T00:41:10;100668.34;;;14.29;95.08
72444;BME280;60449;52.016;5.414;2023-09-19T00:42:19;100672.78;;;14.27;95.53
72444;BME280;60449;52.016;5.414;2023-09-19T00:43:11;100670.16;;;14.27;95.94
72444;BME280;60449;52.016;5.414;2023-09-19T00:44:00;100669.19;;;14.34;95.96
72444;BME280;60449;52.016;5.414;2023-09-19T00:44:55;100668.38;;;14.27;95.77
72444;BME280;60449;52.016;5.414;2023-09-19T00:45:55;100672.72;;;14.35;95.71
72444;BME280;60449;52.016;5.414;2023-09-19T00:46:47;100671.75;;;14.42;95.16
72444;BME280;60449;52.016;5.414;2023-09-19T00:47:38;100666.69;;;14.20;95.77
72444;BME280;60449;52.016;5.414;2023-09-19T00:48:31;100677.41;;;14.09;96.38
72444;BME280;60449;52.016;5.414;2023-09-19T00:49:27;100678.28;;;14.10;96.50
72444;BME280;60449;52.016;5.414;2023-09-19T00:50:24;100675.44;;;14.27;96.16
72444;BME280;60449;52.016;5.414;2023-09-19T00:51:15;100670.94;;;14.34;95.56
72444;BME280;60449;52.016;5.414;2023-09-19T00:52:10;100670.97;;;14.32;95.63
72444;BME280;60449;52.016;5.414;2023-09-19T00:53:03;100676.25;;;14.34;95.14
72444;BME280;60449;52.016;5.414;2023-09-19T00:54:06;100678.81;;;14.43;94.72
72444;BME280;60449;52.016;5.414;2023-09-19T00:54:57;100683.22;;;14.44;94.68
72444;BME280;60449;52.016;5.414;2023-09-19T00:55:48;100684.25;;;14.30;94.79
72444;BME280;60449;52.016;5.414;2023-09-19T00:56:42;100673.88;;;14.09;95.73
72444;BME280;60449;52.016;5.414;2023-09-19T00:57:33;100677.41;;;14.11;96.59
72444;BME280;60449;52.016;5.414;2023-09-19T00:58:23;100688.84;;;14.14;96.24
72444;BME280;60449;52.016;5.414;2023-09-19T00:59:14;100679.09;;;14.16;96.30
72444;BME280;60449;52.016;5.414;2023-09-19T01:00:05;100692.41;;;14.12;96.26
72444;BME280;60449;52.016;5.414;2023-09-19T01:00:59;100689.75;;;14.12;96.46
72444;BME280;60449;52.016;5.414;2023-09-19T01:01:50;100687.97;;;14.12;96.40
72444;BME280;60449;52.016;5.414;2023-09-19T01:02:43;100685.31;;;14.14;96.68
72444;BME280;60449;52.016;5.414;2023-09-19T01:03:39;100689.72;;;14.15;96.67
72444;BME280;60449;52.016;5.414;2023-09-19T01:04:30;100683.41;;;14.27;96.58
72444;BME280;60449;52.016;5.414;2023-09-19T01:05:25;100692.28;;;14.23;96.50
72444;BME280;60449;52.016;5.414;2023-09-19T01:06:16;100689.53;;;14.34;96.59
72444;BME280;60449;52.016;5.414;2023-09-19T01:07:07;100686.00;;;14.31;96.64
72444;BME280;60449;52.016;5.414;2023-09-19T01:07:58;100689.59;;;14.24;96.63
72444;BME280;60449;52.016;5.414;2023-09-19T01:08:48;100685.19;;;14.25;96.86
72444;BME280;60449;52.016;5.414;2023-09-19T01:09:47;100686.91;;;14.29;97.03
72444;BME280;60449;52.016;5.414;2023-09-19T01:10:48;100693.16;;;14.26;96.91
72444;BME280;60449;52.016;5.414;2023-09-19T01:11:47;100696.66;;;14.25;97.70
72444;BME280;60449;52.016;5.414;2023-09-19T01:12:51;100698.44;;;14.26;97.36
72444;BME280;60449;52.016;5.414;2023-09-19T01:14:12;100689.66;;;14.21;97.47
72444;BME280;60449;52.016;5.414;2023-09-19T01:15:20;100696.91;;;14.03;98.48
72444;BME280;60449;52.016;5.414;2023-09-19T01:16:41;100695.88;;;14.19;98.59
72444;BME280;60449;52.016;5.414;2023-09-19T01:17:47;100691.31;;;14.31;98.25
72444;BME280;60449;52.016;5.414;2023-09-19T01:18:52;100691.41;;;14.24;97.51
72444;BME280;60449;52.016;5.414;2023-09-19T01:20:22;100699.31;;;14.28;97.65
72444;BME280;60449;52.016;5.414;2023-09-19T01:21:43;100689.69;;;14.18;97.20
72444;BME280;60449;52.016;5.414;2023-09-19T01:23:00;100690.59;;;14.17;96.85
72444;BME280;60449;52.016;5.414;2023-09-19T01:24:27;100692.34;;;14.20;96.74
72444;BME280;60449;52.016;5.414;2023-09-19T01:26:11;100698.47;;;14.23;96.42
72444;BME280;60449;52.016;5.414;2023-09-19T01:27:53;100702.09;;;14.16;96.32
72444;BME280;60449;52.016;5.414;2023-09-19T01:29:21;100698.56;;;14.14;96.26
72444;BME280;60449;52.016;5.414;2023-09-19T01:30:31;100697.47;;;14.32;96.08
72444;BME280;60449;52.016;5.414;2023-09-19T01:31:42;100709.06;;;14.26;95.67
72444;BME280;60449;52.016;5.414;2023-09-19T01:32:38;100702.03;;;14.21;95.33
72444;BME280;60449;52.016;5.414;2023-09-19T01:33:54;100704.63;;;14.25;94.95
72444;BME280;60449;52.016;5.414;2023-09-19T01:34:51;100701.13;;;14.23;94.71
72444;BME280;60449;52.016;5.414;2023-09-19T01:35:53;100704.56;;;14.31;94.20
72444;BME280;60449;52.016;5.414;2023-09-19T01:36:48;100693.03;;;14.36;94.06
72444;BME280;60449;52.016;5.414;2023-09-19T01:37:37;100692.19;;;14.32;93.85
72444;BME280;60449;52.016;5.414;2023-09-19T01:38:30;100692.25;;;14.26;93.87
72444;BME280;60449;52.016;5.414;2023-09-19T01:39:21;100695.00;;;14.18;93.17
72444;BME280;60449;52.016;5.414;2023-09-19T01:40:15;100686.09;;;14.24;93.17
72444;BME280;60449;52.016;5.414;2023-09-19T01:41:29;100699.56;;;14.05;93.17
72444;BME280;60449;52.016;5.414;2023-09-19T01:42:43;100704.75;;;14.14;92.82
72444;BME280;60449;52.016;5.414;2023-09-19T01:43:43;100708.41;;;14.01;93.27
72444;BME280;60449;52.016;5.414;2023-09-19T01:44:54;100703.13;;;13.99;93.78
72444;BME280;60449;52.016;5.414;2023-09-19T01:46:05;100704.00;;;14.01;93.59
72444;BME280;60449;52.016;5.414;2023-09-19T01:47:32;100703.25;;;13.87;93.86
72444;BME280;60449;52.016;5.414;2023-09-19T01:48:33;100711.13;;;13.96;93.83
72444;BME280;60449;52.016;5.414;2023-09-19T01:49:44;100711.13;;;13.95;93.38
72444;BME280;60449;52.016;5.414;2023-09-19T01:50:59;100714.66;;;13.92;92.36
72444;BME280;60449;52.016;5.414;2023-09-19T01:51:59;100724.50;;;13.78;92.53
72444;BME280;60449;52.016;5.414;2023-09-19T01:53:02;100710.38;;;13.80;92.66
72444;BME280;60449;52.016;5.414;2023-09-19T01:54:09;100713.88;;;13.82;92.72
72444;BME280;60449;52.016;5.414;2023-09-19T01:55:14;100712.13;;;13.80;92.50
72444;BME280;60449;52.016;5.414;2023-09-19T01:56:08;100707.75;;;13.76;92.42
72444;BME280;60449;52.016;5.414;2023-09-19T01:57:17;100716.56;;;13.81;92.21
72444;BME280;60449;52.016;5.414;2023-09-19T01:58:21;100713.13;;;13.69;91.95
72444;BME280;60449;52.016;5.414;2023-09-19T01:59:26;100716.69;;;13.64;92.29
72444;BME280;60449;52.016;5.414;2023-09-19T02:00:29;100721.09;;;13.65;92.32
72444;BME280;60449;52.016;5.414;2023-09-19T02:01:28;100714.03;;;13.65;92.31
72444;BME280;60449;52.016;5.414;2023-09-19T02:02:20;100714.91;;;13.67;92.58
72444;BME280;60449;52.016;5.414;2023-09-19T02:23:33;100720.44;;;13.27;91.91
72444;BME280;60449;52.016;5.414;2023-09-19T02:24:25;100710.69;;;13.32;91.86
72444;BME280;60449;52.016;5.414;2023-09-19T02:25:32;100719.50;;;13.34;91.53
72444;BME280;60449;52.016;5.414;2023-09-19T02:26:26;100726.66;;;13.23;91.46
72444;BME280;60449;52.016;5.414;2023-09-19T02:27:19;100716.03;;;13.24;91.52
72444;BME280;60449;52.016;5.414;2023-09-19T02:29:29;100724.88;;;13.18;91.07
72444;BME280;60449;52.016;5.414;2023-09-19T02:30:26;100722.25;;;13.15;91.08
72444;BME280;60449;52.016;5.414;2023-09-19T02:31:16;100723.16;;;13.14;91.00
72444;BME280;60449;52.016;5.414;2023-09-19T02:32:09;100731.09;;;13.21;90.99
72444;BME280;60449;52.016;5.414;2023-09-19T02:33:00;100724.03;;;13.13;90.76
72444;BME280;60449;52.016;5.414;2023-09-19T02:33:51;100739.03;;;13.19;90.09
72444;BME280;60449;52.016;5.414;2023-09-19T02:34:52;100725.78;;;13.21;89.88
72444;BME280;60449;52.016;5.414;2023-09-19T02:35:42;100736.38;;;13.19;89.62
72444;BME280;60449;52.016;5.414;2023-09-19T02:36:39;100728.44;;;13.16;89.60
72444;BME280;60449;52.016;5.414;2023-09-19T02:37:28;100723.19;;;13.13;89.21
72444;BME280;60449;52.016;5.414;2023-09-19T02:38:19;100730.22;;;13.12;88.79
72444;BME280;60449;52.016;5.414;2023-09-19T02:39:15;100726.69;;;13.13;88.63
72444;BME280;60449;52.016;5.414;2023-09-19T02:40:07;100726.72;;;13.12;88.29
72444;BME280;60449;52.016;5.414;2023-09-19T02:41:08;100732.03;;;13.12;87.92
72444;BME280;60449;52.016;5.414;2023-09-19T02:41:58;100730.28;;;13.06;87.74
72444;BME280;60449;52.016;5.414;2023-09-19T02:42:52;100731.97;;;13.16;88.46
72444;BME280;60449;52.016;5.414;2023-09-19T02:43:45;100726.69;;;13.15;88.55
72444;BME280;60449;52.016;5.414;2023-09-19T02:44:38;100725.81;;;13.11;88.25
72444;BME280;60449;52.016;5.414;2023-09-19T02:45:29;100734.69;;;13.01;88.03
72444;BME280;60449;52.016;5.414;2023-09-19T02:46:19;100730.28;;;13.03;87.99
72444;BME280;60449;52.016;5.414;2023-09-19T02:47:09;100737.34;;;13.01;87.77
72444;BME280;60449;52.016;5.414;2023-09-19T02:48:25;100729.38;;;13.04;87.93
72444;BME280;60449;52.016;5.414;2023-09-19T02:49:15;100741.75;;;13.03;87.79
72444;BME280;60449;52.016;5.414;2023-09-19T02:50:09;100736.50;;;12.96;87.74
72444;BME280;60449;52.016;5.414;2023-09-19T02:51:00;100743.56;;;12.94;87.64
72444;BME280;60449;52.016;5.414;2023-09-19T02:51:52;100752.38;;;12.93;87.65
72444;BME280;60449;52.016;5.414;2023-09-19T02:52:48;100738.31;;;12.84;87.67
72444;BME280;60449;52.016;5.414;2023-09-19T02:53:39;100744.47;;;12.89;87.57
72444;BME280;60449;52.016;5.414;2023-09-19T02:54:39;100723.25;;;12.96;87.21
72444;BME280;60449;52.016;5.414;2023-09-19T02:55:36;100733.84;;;12.94;87.34
72444;BME280;60449;52.016;5.414;2023-09-19T02:56:27;100743.59;;;12.91;86.90
72444;BME280;60449;52.016;5.414;2023-09-19T02:57:17;100730.38;;;12.86;87.20
72444;BME280;60449;52.016;5.414;2023-09-19T02:58:09;100740.94;;;12.87;86.42
72444;BME280;60449;52.016;5.414;2023-09-19T02:59:06;100746.22;;;12.92;86.77
72444;BME280;60449;52.016;5.414;2023-09-19T02:59:59;100733.84;;;12.96;86.52
72444;BME280;60449;52.016;5.414;2023-09-19T03:00:56;100740.03;;;12.88;86.51
72444;BME280;60449;52.016;5.414;2023-09-19T03:01:47;100748.88;;;12.86;86.22
72444;BME280;60449;52.016;5.414;2023-09-19T03:02:38;100742.69;;;12.92;85.63
72444;BME280;60449;52.016;5.414;2023-09-19T03:03:35;100743.56;;;12.87;86.48
72444;BME280;60449;52.016;5.414;2023-09-19T03:04:29;100730.38;;;12.86;86.56
72444;BME280;60449;52.016;5.414;2023-09-19T03:05:20;100734.75;;;12.88;86.32
72444;BME280;60449;52.016;5.414;2023-09-19T03:06:13;100748.88;;;12.87;85.97
72444;BME280;60449;52.016;5.414;2023-09-19T03:07:04;100738.31;;;12.80;86.27
72444;BME280;60449;52.016;5.414;2023-09-19T03:08:01;100734.81;;;12.74;86.76
72444;BME280;60449;52.016;5.414;2023-09-19T03:08:53;100744.50;;;12.79;86.39
72444;BME280;60449;52.016;5.414;2023-09-19T03:09:47;100743.63;;;12.83;86.71
72444;BME280;60449;52.016;5.414;2023-09-19T03:10:40;100751.53;;;12.84;86.06
72444;BME280;60449;52.016;5.414;2023-09-19T03:11:30;100743.59;;;12.84;85.90
72444;BME280;60449;52.016;5.414;2023-09-19T03:12:20;100741.81;;;12.86;86.04
72444;BME280;60449;52.016;5.414;2023-09-19T03:13:11;100737.44;;;12.84;85.73
72444;BME280;60449;52.016;5.414;2023-09-19T03:14:07;100739.16;;;12.86;85.20
72444;BME280;60449;52.016;5.414;2023-09-19T03:14:57;100735.69;;;12.83;85.21
72444;BME280;60449;52.016;5.414;2023-09-19T03:15:54;100735.66;;;12.84;85.38
72444;BME280;60449;52.016;5.414;2023-09-19T03:16:50;100727.75;;;12.78;85.22
72444;BME280;60449;52.016;5.414;2023-09-19T03:17:43;100733.94;;;12.75;85.76
72444;BME280;60449;52.016;5.414;2023-09-19T03:18:34;100730.38;;;12.80;85.84
72444;BME280;60449;52.016;5.414;2023-09-19T03:19:28;100732.16;;;12.74;85.27
72444;BME280;60449;52.016;5.414;2023-09-19T03:20:18;100724.22;;;12.73;85.40
72444;BME280;60449;52.016;5.414;2023-09-19T03:21:10;100723.34;;;12.77;85.80
72444;BME280;60449;52.016;5.414;2023-09-19T03:22:00;100725.97;;;12.80;84.83
72444;BME280;60449;52.016;5.414;2023-09-19T03:22:57;100718.97;;;12.67;84.77
72444;BME280;60449;52.016;5.414;2023-09-19T03:23:47;100722.50;;;12.66;84.95
72444;BME280;60449;52.016;5.414;2023-09-19T03:24:48;100733.09;;;12.66;84.04
72444;BME280;60449;52.016;5.414;2023-09-19T03:25:38;100726.00;;;12.71;84.70
72444;BME280;60449;52.016;5.414;2023-09-19T03:26:28;100725.16;;;12.67;84.47
72444;BME280;60449;52.016;5.414;2023-09-19T03:27:19;100729.56;;;12.62;84.55
72444;BME280;60449;52.016;5.414;2023-09-19T03:28:09;100729.56;;;12.64;83.69
72444;BME280;60449;52.016;5.414;2023-09-19T03:29:05;100718.97;;;12.67;83.88
72444;BME280;60449;52.016;5.414;2023-09-19T03:30:07;100726.91;;;12.70;83.93
72444;BME280;60449;52.016;5.414;2023-09-19T03:31:01;100722.47;;;12.73;83.25
72444;BME280;60449;52.016;5.414;2023-09-19T03:31:52;100730.44;;;12.69;82.72
72444;BME280;60449;52.016;5.414;2023-09-19T03:32:49;100733.09;;;12.67;82.26
72444;BME280;60449;52.016;5.414;2023-09-19T03:33:39;100730.41;;;12.72;82.88
72444;BME280;60449;52.016;5.414;2023-09-19T03:34:30;100735.72;;;12.73;82.96
72444;BME280;60449;52.016;5.414;2023-09-19T03:35:19;100722.47;;;12.77;82.68
72444;BME280;60449;52.016;5.414;2023-09-19T03:36:16;100736.53;;;12.83;82.62
72444;BME280;60449;52.016;5.414;2023-09-19T03:37:09;100739.22;;;12.77;82.41
72444;BME280;60449;52.016;5.414;2023-09-19T03:38:17;100740.09;;;12.73;82.42
72444;BME280;60449;52.016;5.414;2023-09-19T03:39:08;100739.22;;;12.75;83.09
72444;BME280;60449;52.016;5.414;2023-09-19T03:40:01;100734.81;;;12.74;83.04
72444;BME280;60449;52.016;5.414;2023-09-19T03:40:53;100732.16;;;12.74;82.42
72444;BME280;60449;52.016;5.414;2023-09-19T03:41:47;100732.16;;;12.73;82.75
72444;BME280;60449;52.016;5.414;2023-09-19T03:42:38;100725.16;;;12.56;82.83
72444;BME280;60449;52.016;5.414;2023-09-19T03:43:29;100736.63;;;12.55;84.05
72444;BME280;60449;52.016;5.414;2023-09-19T03:44:22;100727.81;;;12.58;82.38
72444;BME280;60449;52.016;5.414;2023-09-19T03:55:32;100723.38;;;12.68;81.60
72444;BME280;60449;52.016;5.414;2023-09-19T03:56:24;100719.00;;;12.64;81.16
72444;BME280;60449;52.016;5.414;2023-09-19T03:57:15;100711.91;;;12.69;81.83
72444;BME280;60449;52.016;5.414;2023-09-19T03:58:09;100719.00;;;12.57;82.13
72444;BME280;60449;52.016;5.414;2023-09-19T03:58:59;100718.09;;;12.58;81.89
72444;BME280;60449;52.016;5.414;2023-09-19T03:59:50;100722.50;;;12.67;81.41
72444;BME280;60449;52.016;5.414;2023-09-19T04:00:42;100726.88;;;12.73;81.79
72444;BME280;60449;52.016;5.414;2023-09-19T04:01:31;100719.84;;;12.75;81.72
72444;BME280;60449;52.016;5.414;2023-09-19T04:02:23;100715.41;;;12.77;80.46
72444;BME280;60449;52.016;5.414;2023-09-19T04:03:16;100717.19;;;12.72;80.74
72444;BME280;60449;52.016;5.414;2023-09-19T04:04:15;100727.72;;;12.84;81.23
72444;BME280;60449;52.016;5.414;2023-09-19T04:05:08;100723.34;;;12.75;80.76
72444;BME280;60449;52.016;5.414;2023-09-19T04:06:04;100722.53;;;12.61;80.64
72444;BME280;60449;52.016;5.414;2023-09-19T04:07:08;100727.81;;;12.63;80.73
72444;BME280;60449;52.016;5.414;2023-09-19T04:07:57;100738.38;;;12.66;80.58
72444;BME280;60449;52.016;5.414;2023-09-19T04:09:12;100731.28;;;12.77;80.18
72444;BME280;60449;52.016;5.414;2023-09-19T04:10:11;100732.22;;;12.62;80.01
72444;BME280;60449;52.016;5.414;2023-09-19T04:11:02;100740.09;;;12.73;80.35
72444;BME280;60449;52.016;5.414;2023-09-19T04:11:56;100733.06;;;12.73;79.75
72444;BME280;60449;52.016;5.414;2023-09-19T04:13:12;100742.75;;;12.73;80.33
72444;BME280;60449;52.016;5.414;2023-09-19T04:14:06;100741.91;;;12.68;80.33
72444;BME280;60449;52.016;5.414;2023-09-19T04:14:56;100738.34;;;12.72;79.88
72444;BME280;60449;52.016;5.414;2023-09-19T04:15:52;100750.69;;;12.79;79.24
72444;BME280;60449;52.016;5.414;2023-09-19T04:16:43;100747.19;;;12.68;79.92
72444;BME280;60449;52.016;5.414;2023-09-19T04:17:36;100747.19;;;12.74;79.71
72444;BME280;60449;52.016;5.414;2023-09-19T04:18:28;100752.47;;;12.71;78.98
72444;BME280;60449;52.016;5.414;2023-09-19T04:19:30;100755.97;;;12.73;79.71
72444;BME280;60449;52.016;5.414;2023-09-19T04:20:19;100761.25;;;12.73;79.27
72444;BME280;60449;52.016;5.414;2023-09-19T04:21:11;100753.34;;;12.70;79.24
72444;BME280;60449;52.016;5.414;2023-09-19T04:22:03;100748.94;;;12.70;78.74
72444;BME280;60449;52.016;5.414;2023-09-19T04:22:53;100758.63;;;12.74;79.45
72444;BME280;60449;52.016;5.414;2023-09-19T04:23:43;100757.78;;;12.69;78.47
72444;BME280;60449;52.016;5.414;2023-09-19T04:24:34;100762.19;;;12.67;79.60
72444;BME280;60449;52.016;5.414;2023-09-19T04:25:24;100762.19;;;12.64;79.45
72444;BME280;60449;52.016;5.414;2023-09-19T04:26:16;100765.72;;;12.63;79.32
72444;BME280;60449;52.016;5.414;2023-09-19T04:27:07;100769.22;;;12.65;79.82
72444;BME280;60449;52.016;5.414;2023-09-19T04:27:58;100770.09;;;12.69;78.96
72444;BME280;60449;52.016;5.414;2023-09-19T04:28:50;100773.66;;;12.57;79.55
72444;BME280;60449;52.016;5.414;2023-09-19T04:29:40;100771.00;;;12.60;79.26
72444;BME280;60449;52.016;5.414;2023-09-19T04:30:37;100787.75;;;12.64;79.27
72444;BME280;60449;52.016;5.414;2023-09-19T04:31:29;100772.78;;;12.63;79.42
72444;BME280;60449;52.016;5.414;2023-09-19T04:32:28;100772.78;;;12.67;78.88
72444;BME280;60449;52.016;5.414;2023-09-19T04:33:22;100768.34;;;12.69;79.37
72444;BME280;60449;52.016;5.414;2023-09-19T04:34:19;100769.22;;;12.70;79.78
72444;BME280;60449;52.016;5.414;2023-09-19T04:35:12;100778.06;;;12.61;79.40
72444;BME280;60449;52.016;5.414;2023-09-19T04:36:05;100775.38;;;12.72;78.93
72444;BME280;60449;52.016;5.414;2023-09-19T04:36:56;100793.91;;;12.75;78.99
72444;BME280;60449;52.016;5.414;2023-09-19T04:37:47;100778.94;;;12.74;78.62
72444;BME280;60449;52.016;5.414;2023-09-19T04:38:51;100789.50;;;12.74;79.14
72444;BME280;60449;52.016;5.414;2023-09-19T04:39:43;100781.56;;;12.69;78.68
72444;BME280;60449;52.016;5.414;2023-09-19T04:40:33;100778.03;;;12.78;79.16
72444;BME280;60449;52.016;5.414;2023-09-19T04:41:25;100799.19;;;12.73;78.92
72444;BME280;60449;52.016;5.414;2023-09-19T04:42:18;100788.59;;;12.81;79.48
72444;BME280;60449;52.016;5.414;2023-09-19T04:43:08;100799.16;;;12.81;79.30
72444;BME280;60449;52.016;5.414;2023-09-19T04:44:05;100787.69;;;12.82;78.75
72444;BME280;60449;52.016;5.414;2023-09-19T04:44:54;100796.50;;;12.84;78.85
72444;BME280;60449;52.016;5.414;2023-09-19T04:45:45;100800.94;;;12.79;79.02
72444;BME280;60449;52.016;5.414;2023-09-19T04:46:35;100793.84;;;12.89;79.64
72444;BME280;60449;52.016;5.414;2023-09-19T04:47:25;100795.63;;;12.81;79.03
72444;BME280;60449;52.016;5.414;2023-09-19T04:48:19;100797.41;;;12.85;79.47
72444;BME280;60449;52.016;5.414;2023-09-19T04:49:08;100808.91;;;12.76;79.53
72444;BME280;60449;52.016;5.414;2023-09-19T04:50:02;100793.88;;;12.80;79.08
72444;BME280;60449;52.016;5.414;2023-09-19T04:51:03;100798.28;;;12.81;79.18
72444;BME280;60449;52.016;5.414;2023-09-19T04:51:56;100786.88;;;12.69;79.87
72444;BME280;60449;52.016;5.414;2023-09-19T04:52:45;100781.53;;;12.80;79.34
72444;BME280;60449;52.016;5.414;2023-09-19T04:53:39;100785.06;;;12.79;79.67
72444;BME280;60449;52.016;5.414;2023-09-19T04:54:38;100787.66;;;12.88;79.40
72444;BME280;60449;52.016;5.414;2023-09-19T04:55:31;100801.81;;;12.81;79.48
72444;BME280;60449;52.016;5.414;2023-09-19T04:56:29;100806.22;;;12.84;78.88
72444;BME280;60449;52.016;5.414;2023-09-19T04:57:19;100794.75;;;12.80;79.15
72444;BME280;60449;52.016;5.414;2023-09-19T04:58:16;100794.75;;;12.80;79.15
72444;BME280;60449;52.016;5.414;2023-09-19T04:59:09;100798.28;;;12.82;79.98
72444;BME280;60449;52.016;5.414;2023-09-19T04:59:59;100788.59;;;12.77;80.01
72444;BME280;60449;52.016;5.414;2023-09-19T05:00:49;100790.34;;;12.81;79.92
72444;BME280;60449;52.016;5.414;2023-09-19T05:01:41;100783.28;;;12.84;79.94
72444;BME280;60449;52.016;5.414;2023-09-19T05:02:30;100791.25;;;12.72;79.98
72444;BME280;60449;52.016;5.414;2023-09-19T05:03:20;100781.56;;;12.77;79.87
72444;BME280;60449;52.016;5.414;2023-09-19T05:04:15;100779.81;;;12.67;79.73
72444;BME280;60449;52.016;5.414;2023-09-19T05:05:06;100787.78;;;12.60;79.84
72444;BME280;60449;52.016;5.414;2023-09-19T05:05:57;100781.59;;;12.66;80.94
72444;BME280;60449;52.016;5.414;2023-09-19T05:06:53;100792.16;;;12.68;80.10
72444;BME280;60449;52.016;5.414;2023-09-19T05:07:46;100789.50;;;12.74;79.71
72444;BME280;60449;52.016;5.414;2023-09-19T05:08:37;100802.72;;;12.72;79.78
72444;BME280;60449;52.016;5.414;2023-09-19T05:09:34;100788.63;;;12.69;79.58
72444;BME280;60449;52.016;5.414;2023-09-19T05:10:29;100779.78;;;12.70;79.63
72444;BME280;60449;52.016;5.414;2023-09-19T05:11:21;100792.13;;;12.75;79.58
72444;BME280;60449;52.016;5.414;2023-09-19T05:12:13;100786.81;;;12.79;79.89
72444;BME280;60449;52.016;5.414;2023-09-19T05:13:05;100787.72;;;12.79;80.21
72444;BME280;60449;52.016;5.414;2023-09-19T05:13:54;100789.50;;;12.77;79.71
72444;BME280;60449;52.016;5.414;2023-09-19T05:14:44;100784.22;;;12.74;80.39
72444;BME280;60449;52.016;5.414;2023-09-19T05:15:34;100806.22;;;12.81;80.33
72444;BME280;60449;52.016;5.414;2023-09-19T05:16:25;100794.78;;;12.77;79.88
72444;BME280;60449;52.016;5.414;2023-09-19T05:17:30;100793.00;;;12.79;79.70
72444;BME280;60449;52.016;5.414;2023-09-19T05:18:21;100791.22;;;12.81;79.51
72444;BME280;60449;52.016;5.414;2023-09-19T05:19:15;100803.56;;;12.82;80.03
72444;BME280;60449;52.016;5.414;2023-09-19T05:20:23;100781.53;;;12.85;79.87
72444;BME280;60449;52.016;5.414;2023-09-19T05:22:26;100793.88;;;12.81;80.25
72444;BME280;60449;52.016;5.414;2023-09-19T05:23:25;100801.84;;;12.73;80.52
72444;BME280;60449;52.016;5.414;2023-09-19T05:24:20;100799.22;;;12.70;80.24
72444;BME280;60449;52.016;5.414;2023-09-19T05:37:40;100792.97;;;12.88;80.75
72444;BME280;60449;52.016;5.414;2023-09-19T05:38:34;100800.03;;;12.89;80.48
72444;BME280;60449;52.016;5.414;2023-09-19T05:39:24;100793.88;;;12.83;81.16
72444;BME280;60449;52.016;5.414;2023-09-19T05:40:16;100800.91;;;12.81;81.65
72444;BME280;60449;52.016;5.414;2023-09-19T05:41:07;100792.97;;;12.88;80.96
72444;BME280;60449;52.016;5.414;2023-09-19T05:41:57;100796.47;;;12.97;80.96
72444;BME280;60449;52.016;5.414;2023-09-19T05:42:47;100785.91;;;12.87;81.01
72444;BME280;60449;52.016;5.414;2023-09-19T05:43:42;100796.53;;;12.83;81.16
72444;BME280;60449;52.016;5.414;2023-09-19T05:44:35;100785.03;;;12.87;81.61
72444;BME280;60449;52.016;5.414;2023-09-19T05:45:25;100790.31;;;12.92;81.07